To NAV CANADA Home Page Login to a new session Search on AWWS site Feedback and Comments Disclaimer Vers la page française équivalente Tips FAQ What's new on the site To the Forecasts and Observations / NOTAM section To "File a Flight Plan" website Publications and other links Update of the User's profile FIC Telephone Numbers My Weather Data Folder Route Weather Data Regional Weather Data Local Weather Data To the Forecasts and Observations / NOTAM section
Request Generated 09/01/2015 at 10:01:52 UTC . Weather information available at that time is displayed.

METAR/TAF

GOOSE BAY/NL    

METAR CYYR 010900Z 36010KT 15SM OVC027 06/03 A2998 RMK SC8 SLP155=
METAR CYYR 010800Z 36013G18KT 15SM OVC029 06/03 A2996 RMK SC7 SLP147=
METAR CYYR 010700Z 01015KT 15SM OVC026 06/03 A2995 RMK SC7 SLP144=

TAF CYYR 010530Z 0106/0206 02010KT P6SM SCT015 BKN025 TEMPO 0106/0115
OVC015
BECMG 0121/0123 02005KT
FM020000 VRB03KT P6SM SCT025 OVC120
RMK NXT FCST BY 011200Z=
Your time UTC time
Weather data provided by Environment Canada and NAV CANADA